sensor_id;sensor_type;location;lat;lon;timestamp;pressure;altitude;pressure_sealevel;temperature;humidity
65276;BME280;51875;49.994;14.052;2022-12-29T00:00:52;98045.63;;;6.60;100.00
65276;BME280;51875;49.994;14.052;2022-12-29T00:02:12;98039.63;;;6.55;100.00
65276;BME280;51875;49.994;14.052;2022-12-29T00:03:28;98033.50;;;6.59;100.00
65276;BME280;51875;49.994;14.052;2022-12-29T00:04:44;98036.03;;;6.62;100.00
65276;BME280;51875;49.994;14.052;2022-12-29T00:05:59;98036.53;;;6.34;100.00
65276;BME280;51875;49.994;14.052;2022-12-29T00:07:16;98037.41;;;6.33;100.00
65276;BME280;51875;49.994;14.052;2022-12-29T00:08:32;98034.75;;;6.35;100.00
65276;BME280;51875;49.994;14.052;2022-12-29T00:09:57;98033.16;;;6.29;100.00
65276;BME280;51875;49.994;14.052;2022-12-29T00:11:18;98033.66;;;6.50;100.00
65276;BME280;51875;49.994;14.052;2022-12-29T00:12:34;98034.63;;;6.44;100.00
65276;BME280;51875;49.994;14.052;2022-12-29T00:14:09;98023.59;;;6.30;100.00
65276;BME280;51875;49.994;14.052;2022-12-29T00:15:44;98031.66;;;6.64;100.00
65276;BME280;51875;49.994;14.052;2022-12-29T00:16:59;98029.81;;;6.70;100.00
65276;BME280;51875;49.994;14.052;2022-12-29T00:18:15;98026.38;;;6.68;100.00
65276;BME280;51875;49.994;14.052;2022-12-29T00:19:31;98028.22;;;6.62;100.00
65276;BME280;51875;49.994;14.052;2022-12-29T00:21:05;98022.56;;;6.39;100.00
65276;BME280;51875;49.994;14.052;2022-12-29T00:22:40;98024.97;;;6.51;100.00
65276;BME280;51875;49.994;14.052;2022-12-29T00:24:19;98024.13;;;6.50;100.00
65276;BME280;51875;49.994;14.052;2022-12-29T00:25:41;98021.91;;;6.27;100.00
65276;BME280;51875;49.994;14.052;2022-12-29T00:27:15;98018.31;;;6.34;100.00
65276;BME280;51875;49.994;14.052;2022-12-29T00:28:50;98019.69;;;6.56;100.00
65276;BME280;51875;49.994;14.052;2022-12-29T00:30:24;98017.00;;;6.10;100.00
65276;BME280;51875;49.994;14.052;2022-12-29T00:31:59;98016.97;;;6.13;100.00
65276;BME280;51875;49.994;14.052;2022-12-29T00:33:33;98025.38;;;6.26;100.00
65276;BME280;51875;49.994;14.052;2022-12-29T00:35:09;98021.81;;;6.33;100.00
65276;BME280;51875;49.994;14.052;2022-12-29T00:36:36;98024.91;;;6.01;100.00
65276;BME280;51875;49.994;14.052;2022-12-29T00:37:56;98021.50;;;5.97;100.00
65276;BME280;51875;49.994;14.052;2022-12-29T00:39:31;98020.88;;;5.83;100.00
65276;BME280;51875;49.994;14.052;2022-12-29T00:41:05;98015.06;;;6.21;100.00
65276;BME280;51875;49.994;14.052;2022-12-29T00:42:40;98012.31;;;6.32;100.00
65276;BME280;51875;49.994;14.052;2022-12-29T00:44:14;98012.16;;;6.40;100.00
65276;BME280;51875;49.994;14.052;2022-12-29T00:45:29;98011.97;;;6.49;100.00
65276;BME280;51875;49.994;14.052;2022-12-29T00:46:45;98020.34;;;5.60;100.00
65276;BME280;51875;49.994;14.052;2022-12-29T00:48:01;98016.91;;;6.16;100.00
65276;BME280;51875;49.994;14.052;2022-12-29T00:49:16;98013.25;;;6.27;100.00
65276;BME280;51875;49.994;14.052;2022-12-29T00:50:47;98008.88;;;6.29;100.00
65276;BME280;51875;49.994;14.052;2022-12-29T00:52:08;98013.97;;;6.35;100.00
65276;BME280;51875;49.994;14.052;2022-12-29T00:53:24;98003.69;;;6.29;100.00
65276;BME280;51875;49.994;14.052;2022-12-29T00:54:40;98010.88;;;6.13;100.00
65276;BME280;51875;49.994;14.052;2022-12-29T00:55:56;98010.19;;;6.04;100.00
65276;BME280;51875;49.994;14.052;2022-12-29T00:57:12;98016.00;;;6.17;100.00
65276;BME280;51875;49.994;14.052;2022-12-29T00:58:29;98012.56;;;6.17;100.00
65276;BME280;51875;49.994;14.052;2022-12-29T00:59:45;98008.28;;;6.13;100.00
65276;BME280;51875;49.994;14.052;2022-12-29T01:01:04;98006.31;;;6.27;100.00
65276;BME280;51875;49.994;14.052;2022-12-29T01:02:20;98002.81;;;6.30;100.00
65276;BME280;51875;49.994;14.052;2022-12-29T01:03:37;98009.34;;;6.02;100.00
65276;BME280;51875;49.994;14.052;2022-12-29T01:04:52;98002.06;;;6.21;100.00
65276;BME280;51875;49.994;14.052;2022-12-29T01:06:09;97999.47;;;6.21;100.00
65276;BME280;51875;49.994;14.052;2022-12-29T01:07:25;98002.81;;;6.28;100.00
65276;BME280;51875;49.994;14.052;2022-12-29T01:08:41;98005.31;;;6.36;100.00
65276;BME280;51875;49.994;14.052;2022-12-29T01:09:57;97999.25;;;6.34;100.00
65276;BME280;51875;49.994;14.052;2022-12-29T01:11:28;98004.38;;;6.39;100.00
65276;BME280;51875;49.994;14.052;2022-12-29T01:12:44;98000.88;;;6.40;100.00
65276;BME280;51875;49.994;14.052;2022-12-29T01:14:00;98010.81;;;6.17;100.00
65276;BME280;51875;49.994;14.052;2022-12-29T01:15:16;98002.78;;;6.31;100.00
65276;BME280;51875;49.994;14.052;2022-12-29T01:16:32;98008.59;;;6.46;100.00
65276;BME280;51875;49.994;14.052;2022-12-29T01:17:48;98003.31;;;6.50;100.00
65276;BME280;51875;49.994;14.052;2022-12-29T01:19:04;98001.63;;;6.48;100.00
65276;BME280;51875;49.994;14.052;2022-12-29T01:20:20;98008.75;;;6.36;100.00
65276;BME280;51875;49.994;14.052;2022-12-29T01:21:35;97993.44;;;6.19;100.00
65276;BME280;51875;49.994;14.052;2022-12-29T01:22:51;97985.75;;;6.15;100.00
65276;BME280;51875;49.994;14.052;2022-12-29T01:24:07;97993.97;;;6.39;100.00
65276;BME280;51875;49.994;14.052;2022-12-29T01:25:23;98002.81;;;6.30;100.00
65276;BME280;51875;49.994;14.052;2022-12-29T01:26:38;97991.50;;;6.32;100.00
65276;BME280;51875;49.994;14.052;2022-12-29T01:27:54;97989.88;;;6.25;100.00
65276;BME280;51875;49.994;14.052;2022-12-29T01:29:10;97987.94;;;6.38;100.00
65276;BME280;51875;49.994;14.052;2022-12-29T01:30:25;97986.91;;;6.45;100.00
65276;BME280;51875;49.994;14.052;2022-12-29T01:31:41;97987.94;;;6.36;100.00
65276;BME280;51875;49.994;14.052;2022-12-29T01:32:57;97978.03;;;6.08;100.00
65276;BME280;51875;49.994;14.052;2022-12-29T01:34:12;97984.44;;;6.39;100.00
65276;BME280;51875;49.994;14.052;2022-12-29T01:35:28;97979.84;;;6.52;100.00
65276;BME280;51875;49.994;14.052;2022-12-29T01:36:43;97989.19;;;6.15;100.00
65276;BME280;51875;49.994;14.052;2022-12-29T01:37:59;97980.00;;;6.44;100.00
65276;BME280;51875;49.994;14.052;2022-12-29T01:39:15;97975.75;;;5.90;100.00
65276;BME280;51875;49.994;14.052;2022-12-29T01:40:43;97979.25;;;6.39;100.00
65276;BME280;51875;49.994;14.052;2022-12-29T01:42:03;97984.41;;;6.41;100.00
65276;BME280;51875;49.994;14.052;2022-12-29T01:43:59;97993.09;;;6.40;100.00
65276;BME280;51875;49.994;14.052;2022-12-29T01:45:17;97984.88;;;6.16;100.00
65276;BME280;51875;49.994;14.052;2022-12-29T01:46:36;97984.59;;;6.30;100.00
65276;BME280;51875;49.994;14.052;2022-12-29T01:48:00;97987.94;;;6.38;100.00
65276;BME280;51875;49.994;14.052;2022-12-29T01:49:27;97980.59;;;6.59;100.00
65276;BME280;51875;49.994;14.052;2022-12-29T01:50:50;97990.09;;;6.61;100.00
65276;BME280;51875;49.994;14.052;2022-12-29T01:52:07;97989.28;;;6.59;100.00
65276;BME280;51875;49.994;14.052;2022-12-29T01:53:27;97989.28;;;6.58;100.00
65276;BME280;51875;49.994;14.052;2022-12-29T01:54:50;97985.88;;;6.56;100.00
65276;BME280;51875;49.994;14.052;2022-12-29T01:56:09;97996.34;;;6.51;100.00
65276;BME280;51875;49.994;14.052;2022-12-29T01:57:32;97996.13;;;6.63;100.00
65276;BME280;51875;49.994;14.052;2022-12-29T01:58:54;97994.72;;;6.45;100.00
65276;BME280;51875;49.994;14.052;2022-12-29T02:00:13;97993.66;;;6.57;100.00
65276;BME280;51875;49.994;14.052;2022-12-29T02:01:29;97995.59;;;6.46;100.00
65276;BME280;51875;49.994;14.052;2022-12-29T02:02:51;97998.13;;;6.49;100.00
65276;BME280;51875;49.994;14.052;2022-12-29T02:04:10;97991.00;;;6.59;100.00
65276;BME280;51875;49.994;14.052;2022-12-29T02:07:00;97988.25;;;6.67;100.00
65276;BME280;51875;49.994;14.052;2022-12-29T02:08:20;97986.06;;;6.45;100.00
65276;BME280;51875;49.994;14.052;2022-12-29T02:09:37;97987.88;;;6.41;100.00
65276;BME280;51875;49.994;14.052;2022-12-29T02:10:53;97992.94;;;6.47;100.00
65276;BME280;51875;49.994;14.052;2022-12-29T02:12:09;97993.50;;;6.16;100.00
65276;BME280;51875;49.994;14.052;2022-12-29T02:13:26;97992.69;;;6.13;100.00
65276;BME280;51875;49.994;14.052;2022-12-29T02:14:42;97989.44;;;5.98;100.00
65276;BME280;51875;49.994;14.052;2022-12-29T02:17:58;97985.78;;;6.12;100.00
65276;BME280;51875;49.994;14.052;2022-12-29T02:23:24;97980.66;;;6.08;100.00
65276;BME280;51875;49.994;14.052;2022-12-29T02:25:29;97981.03;;;5.84;100.00
65276;BME280;51875;49.994;14.052;2022-12-29T02:28:31;97973.84;;;6.01;100.00
65276;BME280;51875;49.994;14.052;2022-12-29T02:30:08;97976.97;;;6.20;100.00
65276;BME280;51875;49.994;14.052;2022-12-29T02:31:31;97969.50;;;6.02;100.00
65276;BME280;51875;49.994;14.052;2022-12-29T02:32:52;97977.19;;;6.08;100.00
65276;BME280;51875;49.994;14.052;2022-12-29T02:34:44;97969.31;;;6.13;100.00
65276;BME280;51875;49.994;14.052;2022-12-29T02:36:06;97966.47;;;6.25;100.00
65276;BME280;51875;49.994;14.052;2022-12-29T02:37:56;97959.09;;;6.00;100.00
65276;BME280;51875;49.994;14.052;2022-12-29T02:39:38;97957.13;;;6.16;100.00
65276;BME280;51875;49.994;14.052;2022-12-29T02:41:01;97953.19;;;6.42;100.00
65276;BME280;51875;49.994;14.052;2022-12-29T02:43:50;97949.09;;;6.29;100.00
65276;BME280;51875;49.994;14.052;2022-12-29T02:45:17;97951.47;;;6.40;100.00
65276;BME280;51875;49.994;14.052;2022-12-29T02:46:47;97953.00;;;6.52;100.00
65276;BME280;51875;49.994;14.052;2022-12-29T02:49:58;97954.88;;;6.45;100.00
65276;BME280;51875;49.994;14.052;2022-12-29T02:51:20;97947.69;;;6.56;100.00
65276;BME280;51875;49.994;14.052;2022-12-29T02:52:44;97947.53;;;6.66;100.00
65276;BME280;51875;49.994;14.052;2022-12-29T02:54:03;97940.09;;;6.47;100.00
65276;BME280;51875;49.994;14.052;2022-12-29T02:55:37;97942.22;;;6.72;100.00
65276;BME280;51875;49.994;14.052;2022-12-29T02:56:53;97935.06;;;6.38;100.00
65276;BME280;51875;49.994;14.052;2022-12-29T02:58:16;97930.16;;;6.20;100.00
65276;BME280;51875;49.994;14.052;2022-12-29T02:59:32;97933.94;;;6.51;100.00
65276;BME280;51875;49.994;14.052;2022-12-29T03:05:58;97910.91;;;6.75;100.00
65276;BME280;51875;49.994;14.052;2022-12-29T03:12:03;97900.69;;;6.66;100.00
65276;BME280;51875;49.994;14.052;2022-12-29T03:13:34;97915.13;;;6.38;100.00
65276;BME280;51875;49.994;14.052;2022-12-29T03:15:15;97920.50;;;6.73;100.00
65276;BME280;51875;49.994;14.052;2022-12-29T03:16:59;97922.06;;;6.80;100.00
65276;BME280;51875;49.994;14.052;2022-12-29T03:18:22;97928.16;;;6.79;100.00
65276;BME280;51875;49.994;14.052;2022-12-29T03:19:44;97921.97;;;6.42;100.00
65276;BME280;51875;49.994;14.052;2022-12-29T03:21:06;97926.72;;;6.66;100.00
65276;BME280;51875;49.994;14.052;2022-12-29T03:22:27;97925.88;;;6.63;100.00
65276;BME280;51875;49.994;14.052;2022-12-29T03:23:48;97933.75;;;6.60;100.00
65276;BME280;51875;49.994;14.052;2022-12-29T03:25:07;97928.22;;;6.77;100.00
65276;BME280;51875;49.994;14.052;2022-12-29T03:26:25;97931.75;;;6.73;100.00
65276;BME280;51875;49.994;14.052;2022-12-29T03:27:44;97931.22;;;6.57;100.00
65276;BME280;51875;49.994;14.052;2022-12-29T03:29:01;97934.44;;;6.70;100.00
65276;BME280;51875;49.994;14.052;2022-12-29T03:30:17;97935.88;;;6.84;100.00
65276;BME280;51875;49.994;14.052;2022-12-29T03:31:35;97934.91;;;6.88;100.00
65276;BME280;51875;49.994;14.052;2022-12-29T03:32:54;97928.88;;;6.87;100.00
65276;BME280;51875;49.994;14.052;2022-12-29T03:34:12;97933.53;;;6.71;100.00
65276;BME280;51875;49.994;14.052;2022-12-29T03:35:31;97925.41;;;6.87;100.00
65276;BME280;51875;49.994;14.052;2022-12-29T03:36:53;97928.91;;;6.86;100.00
65276;BME280;51875;49.994;14.052;2022-12-29T03:38:12;97929.94;;;6.78;100.00
65276;BME280;51875;49.994;14.052;2022-12-29T03:39:29;97915.66;;;6.97;100.00
65276;BME280;51875;49.994;14.052;2022-12-29T03:40:48;97912.94;;;7.03;100.00
65276;BME280;51875;49.994;14.052;2022-12-29T03:42:10;97910.97;;;7.13;100.00
65276;BME280;51875;49.994;14.052;2022-12-29T03:43:27;97920.00;;;6.96;100.00
65276;BME280;51875;49.994;14.052;2022-12-29T03:44:44;97913.28;;;7.25;100.00
65276;BME280;51875;49.994;14.052;2022-12-29T03:46:00;97916.41;;;7.02;100.00
65276;BME280;51875;49.994;14.052;2022-12-29T03:47:16;97913.22;;;6.89;100.00
65276;BME280;51875;49.994;14.052;2022-12-29T03:48:31;97912.22;;;6.95;100.00
65276;BME280;51875;49.994;14.052;2022-12-29T03:49:48;97907.13;;;6.90;100.00
65276;BME280;51875;49.994;14.052;2022-12-29T03:51:04;97904.03;;;7.13;100.00
65276;BME280;51875;49.994;14.052;2022-12-29T03:52:20;97905.38;;;6.90;100.00
65276;BME280;51875;49.994;14.052;2022-12-29T03:53:36;97903.44;;;7.00;100.00
65276;BME280;51875;49.994;14.052;2022-12-29T03:54:51;97911.41;;;6.50;100.00
65276;BME280;51875;49.994;14.052;2022-12-29T03:56:07;97905.81;;;6.69;100.00
65276;BME280;51875;49.994;14.052;2022-12-29T03:57:23;97893.16;;;6.94;100.00
65276;BME280;51875;49.994;14.052;2022-12-29T03:58:38;97901.09;;;6.45;100.00
65276;BME280;51875;49.994;14.052;2022-12-29T03:59:54;97894.09;;;6.90;100.00
65276;BME280;51875;49.994;14.052;2022-12-29T04:01:09;97893.91;;;6.99;100.00
65276;BME280;51875;49.994;14.052;2022-12-29T04:02:25;97888.19;;;6.83;100.00
65276;BME280;51875;49.994;14.052;2022-12-29T04:03:41;97898.97;;;6.66;100.00
65276;BME280;51875;49.994;14.052;2022-12-29T04:04:56;97896.94;;;6.79;100.00
65276;BME280;51875;49.994;14.052;2022-12-29T04:06:12;97892.63;;;6.78;100.00
65276;BME280;51875;49.994;14.052;2022-12-29T04:07:28;97891.34;;;6.98;100.00
65276;BME280;51875;49.994;14.052;2022-12-29T04:08:43;97895.53;;;6.64;100.00
65276;BME280;51875;49.994;14.052;2022-12-29T04:09:59;97903.69;;;6.88;100.00
65276;BME280;51875;49.994;14.052;2022-12-29T04:11:14;97910.78;;;6.81;100.00
65276;BME280;51875;49.994;14.052;2022-12-29T04:12:30;97900.53;;;7.14;100.00
65276;BME280;51875;49.994;14.052;2022-12-29T04:13:46;97904.75;;;7.20;100.00
65276;BME280;51875;49.994;14.052;2022-12-29T04:15:01;97907.72;;;7.03;100.00
65276;BME280;51875;49.994;14.052;2022-12-29T04:16:17;97907.59;;;6.68;100.00
65276;BME280;51875;49.994;14.052;2022-12-29T04:17:33;97910.75;;;6.83;100.00
65276;BME280;51875;49.994;14.052;2022-12-29T04:18:48;97907.66;;;7.06;100.00
65276;BME280;51875;49.994;14.052;2022-12-29T04:20:04;97909.94;;;7.20;100.00
65276;BME280;51875;49.994;14.052;2022-12-29T04:21:39;97911.50;;;6.88;100.00
65276;BME280;51875;49.994;14.052;2022-12-29T04:23:04;97903.22;;;7.10;100.00
65276;BME280;51875;49.994;14.052;2022-12-29T04:24:20;97904.75;;;7.20;100.00
65276;BME280;51875;49.994;14.052;2022-12-29T04:25:35;97907.19;;;7.26;100.00
65276;BME280;51875;49.994;14.052;2022-12-29T04:26:51;97897.25;;;7.04;100.00
65276;BME280;51875;49.994;14.052;2022-12-29T04:28:07;97897.06;;;7.12;100.00
65276;BME280;51875;49.994;14.052;2022-12-29T04:29:23;97901.06;;;6.89;100.00
65276;BME280;51875;49.994;14.052;2022-12-29T04:30:38;97896.88;;;6.82;100.00
65276;BME280;51875;49.994;14.052;2022-12-29T04:31:54;97890.13;;;7.13;100.00
65276;BME280;51875;49.994;14.052;2022-12-29T04:33:10;97895.88;;;6.89;100.00
65276;BME280;51875;49.994;14.052;2022-12-29T04:34:26;97889.31;;;7.11;100.00
65276;BME280;51875;49.994;14.052;2022-12-29T04:35:42;97886.53;;;7.20;100.00
65276;BME280;51875;49.994;14.052;2022-12-29T04:36:58;97882.03;;;7.25;100.00
65276;BME280;51875;49.994;14.052;2022-12-29T04:38:14;97873.53;;;7.55;100.00
65276;BME280;51875;49.994;14.052;2022-12-29T04:39:30;97875.47;;;7.46;100.00
65276;BME280;51875;49.994;14.052;2022-12-29T04:40:46;97870.75;;;7.25;100.00
65276;BME280;51875;49.994;14.052;2022-12-29T04:42:02;97877.84;;;7.19;100.00
65276;BME280;51875;49.994;14.052;2022-12-29T04:43:17;97871.44;;;7.33;100.00
65276;BME280;51875;49.994;14.052;2022-12-29T04:44:37;97871.13;;;7.09;100.00
65276;BME280;51875;49.994;14.052;2022-12-29T04:45:53;97871.91;;;7.14;100.00
65276;BME280;51875;49.994;14.052;2022-12-29T04:47:08;97875.34;;;7.15;100.00
65276;BME280;51875;49.994;14.052;2022-12-29T04:48:24;97874.13;;;7.30;100.00
65276;BME280;51875;49.994;14.052;2022-12-29T04:49:39;97867.75;;;7.42;100.00
65276;BME280;51875;49.994;14.052;2022-12-29T04:50:55;97875.06;;;7.27;100.00
65276;BME280;51875;49.994;14.052;2022-12-29T04:52:11;97877.69;;;7.62;100.00
65276;BME280;51875;49.994;14.052;2022-12-29T04:53:26;97874.47;;;7.52;100.00
65276;BME280;51875;49.994;14.052;2022-12-29T04:54:42;97877.47;;;7.35;100.00
65276;BME280;51875;49.994;14.052;2022-12-29T04:55:57;97875.91;;;7.28;100.00
65276;BME280;51875;49.994;14.052;2022-12-29T04:57:13;97879.19;;;7.36;100.00
65276;BME280;51875;49.994;14.052;2022-12-29T04:58:29;97872.16;;;7.40;100.00
65276;BME280;51875;49.994;14.052;2022-12-29T04:59:44;97868.03;;;7.31;100.00
65276;BME280;51875;49.994;14.052;2022-12-29T05:01:00;97867.25;;;7.26;100.00
65276;BME280;51875;49.994;14.052;2022-12-29T05:02:16;97879.47;;;7.24;100.00
65276;BME280;51875;49.994;14.052;2022-12-29T05:03:32;97872.25;;;7.35;100.00
65276;BME280;51875;49.994;14.052;2022-12-29T05:04:47;97869.94;;;7.23;100.00
65276;BME280;51875;49.994;14.052;2022-12-29T05:06:03;97878.53;;;7.28;100.00
65276;BME280;51875;49.994;14.052;2022-12-29T05:07:18;97876.03;;;7.23;100.00
65276;BME280;51875;49.994;14.052;2022-12-29T05:08:34;97866.25;;;7.33;100.00
65276;BME280;51875;49.994;14.052;2022-12-29T05:09:50;97872.00;;;7.10;100.00
65276;BME280;51875;49.994;14.052;2022-12-29T05:11:05;97880.28;;;7.26;100.00
65276;BME280;51875;49.994;14.052;2022-12-29T05:12:21;97874.91;;;7.33;100.00
65276;BME280;51875;49.994;14.052;2022-12-29T05:13:37;97873.16;;;7.34;100.00
65276;BME280;51875;49.994;14.052;2022-12-29T05:14:52;97879.19;;;7.36;100.00
65276;BME280;51875;49.994;14.052;2022-12-29T05:16:08;97871.25;;;7.41;100.00
65276;BME280;51875;49.994;14.052;2022-12-29T05:17:23;97867.88;;;7.37;100.00
65276;BME280;51875;49.994;14.052;2022-12-29T05:18:39;97871.81;;;7.54;100.00
65276;BME280;51875;49.994;14.052;2022-12-29T05:19:55;97873.91;;;7.74;100.00
65276;BME280;51875;49.994;14.052;2022-12-29T05:21:10;97870.94;;;7.55;100.00
65276;BME280;51875;49.994;14.052;2022-12-29T05:22:26;97875.09;;;7.62;100.00
65276;BME280;51875;49.994;14.052;2022-12-29T05:23:42;97868.38;;;7.52;100.00
65276;BME280;51875;49.994;14.052;2022-12-29T05:24:57;97861.50;;;7.84;100.00
65276;BME280;51875;49.994;14.052;2022-12-29T05:26:13;97858.22;;;7.77;100.00
65276;BME280;51875;49.994;14.052;2022-12-29T05:27:28;97868.47;;;7.83;100.00
65276;BME280;51875;49.994;14.052;2022-12-29T05:28:44;97868.84;;;8.02;100.00
65276;BME280;51875;49.994;14.052;2022-12-29T05:30:00;97860.09;;;8.05;100.00
65276;BME280;51875;49.994;14.052;2022-12-29T05:31:15;97863.94;;;7.90;100.00
65276;BME280;51875;49.994;14.052;2022-12-29T05:32:31;97856.94;;;7.92;100.00
65276;BME280;51875;49.994;14.052;2022-12-29T05:33:47;97861.94;;;8.00;100.00
65276;BME280;51875;49.994;14.052;2022-12-29T05:35:02;97869.63;;;8.06;100.00
65276;BME280;51875;49.994;14.052;2022-12-29T05:36:18;97871.88;;;8.18;100.00
65276;BME280;51875;49.994;14.052;2022-12-29T05:37:34;97874.63;;;8.14;100.00
65276;BME280;51875;49.994;14.052;2022-12-29T05:38:50;97883.50;;;8.06;100.00
65276;BME280;51875;49.994;14.052;2022-12-29T05:40:06;97883.66;;;8.00;100.00
65276;BME280;51875;49.994;14.052;2022-12-29T05:41:21;97873.88;;;8.09;100.00
65276;BME280;51875;49.994;14.052;2022-12-29T05:42:37;97874.50;;;8.18;100.00
65276;BME280;51875;49.994;14.052;2022-12-29T05:43:53;97871.72;;;8.25;100.00
65276;BME280;51875;49.994;14.052;2022-12-29T05:45:08;97877.16;;;8.15;100.00
65276;BME280;51875;49.994;14.052;2022-12-29T05:46:24;97881.72;;;8.40;100.00
65276;BME280;51875;49.994;14.052;2022-12-29T05:47:40;97877.88;;;8.54;100.00
65276;BME280;51875;49.994;14.052;2022-12-29T05:48:55;97876.28;;;8.48;100.00
65276;BME280;51875;49.994;14.052;2022-12-29T05:50:11;97878.31;;;8.70;100.00
65276;BME280;51875;49.994;14.052;2022-12-29T05:51:26;97874.94;;;8.65;100.00
65276;BME280;51875;49.994;14.052;2022-12-29T05:52:42;97871.84;;;8.52;100.00
65276;BME280;51875;49.994;14.052;2022-12-29T05:53:58;97879.06;;;8.42;100.00
65276;BME280;51875;49.994;14.052;2022-12-29T05:55:14;97878.53;;;8.62;100.00
65276;BME280;51875;49.994;14.052;2022-12-29T05:56:29;97875.34;;;8.19;100.00
65276;BME280;51875;49.994;14.052;2022-12-29T05:57:45;97881.91;;;8.01;100.00
65276;BME280;51875;49.994;14.052;2022-12-29T05:59:01;97873.28;;;8.30;100.00
65276;BME280;51875;49.994;14.052;2022-12-29T06:00:16;97874.34;;;8.56;100.00
65276;BME280;51875;49.994;14.052;2022-12-29T06:01:32;97878.66;;;8.57;100.00
65276;BME280;51875;49.994;14.052;2022-12-29T06:02:49;97887.53;;;8.50;100.00
65276;BME280;51875;49.994;14.052;2022-12-29T06:04:05;97880.03;;;8.69;100.00
65276;BME280;51875;49.994;14.052;2022-12-29T06:05:21;97878.22;;;8.71;100.00
65276;BME280;51875;49.994;14.052;2022-12-29T06:06:36;97873.25;;;8.32;100.00
65276;BME280;51875;49.994;14.052;2022-12-29T06:07:52;97872.94;;;8.43;100.00
65276;BME280;51875;49.994;14.052;2022-12-29T06:09:09;97873.63;;;8.18;100.00
65276;BME280;51875;49.994;14.052;2022-12-29T06:10:25;97866.31;;;8.62;100.00
65276;BME280;51875;49.994;14.052;2022-12-29T06:11:40;97867.97;;;8.33;100.00
65276;BME280;51875;49.994;14.052;2022-12-29T06:12:56;97872.94;;;8.43;100.00
65276;BME280;51875;49.994;14.052;2022-12-29T06:14:12;97872.66;;;8.54;100.00
65276;BME280;51875;49.994;14.052;2022-12-29T06:15:28;97875.94;;;8.60;100.00
65276;BME280;51875;49.994;14.052;2022-12-29T06:16:43;97874.56;;;8.79;100.00
65276;BME280;51875;49.994;14.052;2022-12-29T06:17:59;97858.09;;;8.45;100.00
65276;BME280;51875;49.994;14.052;2022-12-29T06:19:15;97870.63;;;8.64;100.00
65276;BME280;51875;49.994;14.052;2022-12-29T06:20:30;97872.44;;;8.61;100.00
65276;BME280;51875;49.994;14.052;2022-12-29T06:21:46;97865.91;;;9.05;100.00
65276;BME280;51875;49.994;14.052;2022-12-29T06:23:01;97865.19;;;9.01;100.00
65276;BME280;51875;49.994;14.052;2022-12-29T06:24:17;97865.41;;;8.64;100.00
65276;BME280;51875;49.994;14.052;2022-12-29T06:25:33;97872.72;;;8.82;100.00
65276;BME280;51875;49.994;14.052;2022-12-29T06:26:49;97871.03;;;8.80;100.00
65276;BME280;51875;49.994;14.052;2022-12-29T06:28:05;97873.63;;;8.81;100.00
65276;BME280;51875;49.994;14.052;2022-12-29T06:29:20;97878.00;;;8.79;100.00
65276;BME280;51875;49.994;14.052;2022-12-29T06:30:36;97875.75;;;8.97;100.00
65276;BME280;51875;49.994;14.052;2022-12-29T06:31:52;97875.47;;;9.06;100.00
65276;BME280;51875;49.994;14.052;2022-12-29T06:33:12;97882.50;;;9.04;100.00
65276;BME280;51875;49.994;14.052;2022-12-29T06:34:28;97879.22;;;8.97;100.00
65276;BME280;51875;49.994;14.052;2022-12-29T06:35:43;97880.53;;;9.11;100.00
65276;BME280;51875;49.994;14.052;2022-12-29T06:36:59;97888.59;;;9.04;100.00
65276;BME280;51875;49.994;14.052;2022-12-29T06:38:14;97885.47;;;8.92;100.00
65276;BME280;51875;49.994;14.052;2022-12-29T06:39:30;97886.34;;;8.92;100.00
65276;BME280;51875;49.994;14.052;2022-12-29T06:40:46;97876.19;;;9.11;100.00
65276;BME280;51875;49.994;14.052;2022-12-29T06:42:02;97879.31;;;9.23;100.00
65276;BME280;51875;49.994;14.052;2022-12-29T06:43:18;97881.75;;;9.27;100.00
65276;BME280;51875;49.994;14.052;2022-12-29T06:44:33;97882.66;;;9.26;100.00
65276;BME280;51875;49.994;14.052;2022-12-29T06:45:49;97886.00;;;9.31;100.00
65276;BME280;51875;49.994;14.052;2022-12-29T06:47:04;97878.09;;;9.33;100.00
65276;BME280;51875;49.994;14.052;2022-12-29T06:48:20;97883.41;;;9.31;100.00
65276;BME280;51875;49.994;14.052;2022-12-29T06:49:36;97884.63;;;9.19;100.00
65276;BME280;51875;49.994;14.052;2022-12-29T06:50:52;97877.56;;;9.23;100.00
65276;BME280;51875;49.994;14.052;2022-12-29T06:52:07;97888.38;;;9.39;100.00
65276;BME280;51875;49.994;14.052;2022-12-29T06:53:23;97882.28;;;9.66;100.00
65276;BME280;51875;49.994;14.052;2022-12-29T06:54:39;97878.97;;;9.87;100.00
65276;BME280;51875;49.994;14.052;2022-12-29T06:55:54;97881.31;;;9.95;100.00
65276;BME280;51875;49.994;14.052;2022-12-29T06:57:11;97879.38;;;10.00;100.00
65276;BME280;51875;49.994;14.052;2022-12-29T06:58:27;97873.91;;;10.32;100.00
65276;BME280;51875;49.994;14.052;2022-12-29T06:59:43;97885.41;;;10.28;100.00
65276;BME280;51875;49.994;14.052;2022-12-29T07:00:58;97878.91;;;10.38;100.00
65276;BME280;51875;49.994;14.052;2022-12-29T07:02:14;97883.69;;;10.52;100.00
65276;BME280;51875;49.994;14.052;2022-12-29T07:03:30;97877.50;;;10.29;100.00
65276;BME280;51875;49.994;14.052;2022-12-29T07:04:45;97881.34;;;10.44;100.00
65276;BME280;51875;49.994;14.052;2022-12-29T07:06:01;97881.47;;;10.65;100.00
65276;BME280;51875;49.994;14.052;2022-12-29T07:07:17;97884.31;;;10.34;100.00
65276;BME280;51875;49.994;14.052;2022-12-29T07:08:33;97884.13;;;10.14;100.00
65276;BME280;51875;49.994;14.052;2022-12-29T07:09:48;97891.75;;;10.46;100.00
65276;BME280;51875;49.994;14.052;2022-12-29T07:11:04;97889.03;;;10.49;100.00
65276;BME280;51875;49.994;14.052;2022-12-29T07:12:20;97890.97;;;10.44;100.00
65276;BME280;51875;49.994;14.052;2022-12-29T07:13:35;97887.09;;;10.54;100.00
65276;BME280;51875;49.994;14.052;2022-12-29T07:14:51;97891.75;;;10.70;100.00